Snettisham, United Kingdom
Current Conditions -  °F | °C
As of 5:50 AM on Tuesday 21 Oct 2014 (Local Time) from EGYM Reporting Station
Light Rain Light Rain  
Wind Chill: 54°   Ceiling: 2000
Heat Index: 54°   Visibility: 6mi
Dew Point: 52°   Wind: 20mph
Humidity: 94%   Direction: 190°S
Pressure: 29.5"   Gusts: NA
Location:  52.88°N, 0.5°E
Report Text: EGYM 210450Z 19017KT 9999 -RA BKN020 12/11 Q0999 WHT
Loading
Personal Weather Stations






























Interactive Weather Map
Tropical Storm Tracking
New forecast layout! Learn more

10-Day Weather Forecast

Advertisements
Track Severe Weather on mobile